createdAt,value
2019-04-23T00:01:36.733Z,2.05
2019-04-23T00:04:05.713Z,1.87
2019-04-23T00:06:44.370Z,2.15
2019-04-23T00:09:12.544Z,1.80
2019-04-23T00:11:47.642Z,1.80
2019-04-23T00:14:27.310Z,1.70
2019-04-23T00:16:45.978Z,1.90
2019-04-23T00:19:22.899Z,1.65
2019-04-23T00:21:55.370Z,1.90
2019-04-23T00:25:11.741Z,1.87
2019-04-23T00:29:53.816Z,1.70
2019-04-23T00:32:23.416Z,2.20
2019-04-23T00:37:25.951Z,2.07
2019-04-23T00:40:02.618Z,1.90
2019-04-23T00:42:32.900Z,2.10
2019-04-23T00:47:32.884Z,1.80
2019-04-23T00:50:06.427Z,1.80
2019-04-23T00:55:12.357Z,1.80
2019-04-23T00:57:35.594Z,1.77
2019-04-23T01:00:11.892Z,2.17
2019-04-23T01:02:37.412Z,2.07
2019-04-23T01:05:11.360Z,1.87
2019-04-23T01:07:38.572Z,2.50
2019-04-23T01:10:15.187Z,2.10
2019-04-23T01:15:23.979Z,2.00
2019-04-23T01:17:56.038Z,2.30
2019-04-23T01:20:28.973Z,2.50
2019-04-23T01:22:42.085Z,2.10
2019-04-23T01:25:31.020Z,1.97
2019-04-23T01:28:23.214Z,2.00
2019-04-23T01:30:55.341Z,2.30
2019-04-23T01:33:33.036Z,2.33
2019-04-23T01:36:10.850Z,2.30
2019-04-23T01:38:33.572Z,2.20
2019-04-23T01:41:04.405Z,2.43
2019-04-23T01:43:38.291Z,2.13
2019-04-23T01:46:02.792Z,2.33
2019-04-23T01:48:42.414Z,2.00
2019-04-23T01:51:03.455Z,1.77
2019-04-23T01:53:42.324Z,1.80
2019-04-23T01:56:14.334Z,2.13
2019-04-23T01:58:59.196Z,2.40
2019-04-23T02:01:11.674Z,2.40
2019-04-23T02:03:48.567Z,2.07
2019-04-23T02:08:52.475Z,2.20
2019-04-23T02:11:19.965Z,3.47
2019-04-23T02:16:24.618Z,2.00
2019-04-23T02:19:01.662Z,2.40
2019-04-23T02:21:47.465Z,2.23
2019-04-23T02:23:57.329Z,2.00
2019-04-23T02:26:34.456Z,2.30
2019-04-23T02:34:25.771Z,2.40
2019-04-23T02:36:55.135Z,2.40
2019-04-23T02:39:22.524Z,2.57
2019-04-23T02:44:36.618Z,2.27
2019-04-23T02:46:59.489Z,3.10
2019-04-23T02:49:28.742Z,2.70
2019-04-23T02:52:03.479Z,2.90
2019-04-23T02:56:55.656Z,2.70
2019-04-23T03:04:50.300Z,2.60
2019-04-23T03:07:32.956Z,2.93
2019-04-23T03:09:53.133Z,2.70
2019-04-23T03:13:31.797Z,2.37
2019-04-23T03:18:13.842Z,2.63
2019-04-23T03:20:35.075Z,3.27
2019-04-23T03:23:20.330Z,2.70
2019-04-23T03:26:08.548Z,3.03
2019-04-23T03:41:32.424Z,3.00
2019-04-23T03:46:27.915Z,3.40
2019-04-23T03:48:47.414Z,3.20
2019-04-23T03:51:22.389Z,3.23
2019-04-23T03:59:03.584Z,3.17
2019-04-23T04:04:22.716Z,3.33
2019-04-23T04:06:37.601Z,3.73
2019-04-23T04:09:13.324Z,3.43
2019-04-23T04:11:33.427Z,3.30
2019-04-23T04:14:12.147Z,3.40
2019-04-23T04:16:53.843Z,3.47
2019-04-23T04:21:39.916Z,3.50
2019-04-23T04:31:48.485Z,3.40
2019-04-23T04:34:55.609Z,3.60
2019-04-23T04:36:58.455Z,3.83
2019-04-23T04:39:26.494Z,3.90
2019-04-23T04:41:58.789Z,3.50
2019-04-23T04:44:38.343Z,3.80
2019-04-23T04:46:50.521Z,3.70
2019-04-23T04:49:34.211Z,4.03
2019-04-23T04:52:11.249Z,3.70
2019-04-23T04:57:06.867Z,3.47
2019-04-23T04:59:55.458Z,3.83
2019-04-23T05:02:08.787Z,3.80
2019-04-23T05:04:38.084Z,3.77
2019-04-23T05:09:47.642Z,3.90
2019-04-23T05:17:30.162Z,3.63
2019-04-23T05:22:31.185Z,4.00
2019-04-23T05:24:52.556Z,4.13
2019-04-23T05:27:28.939Z,4.57
2019-04-23T05:30:02.879Z,3.90
2019-04-23T05:32:26.456Z,4.00
2019-04-23T05:35:08.023Z,4.10
2019-04-23T05:37:43.424Z,4.13
2019-04-23T05:40:08.054Z,4.53
2019-04-23T05:42:41.510Z,4.30
2019-04-23T05:45:00.844Z,4.03
2019-04-23T05:47:38.115Z,4.73
2019-04-23T05:52:46.412Z,4.15
2019-04-23T05:55:18.789Z,4.25
2019-04-23T05:57:44.481Z,4.15
2019-04-23T06:00:19.018Z,5.03
2019-04-23T06:02:48.568Z,4.10
2019-04-23T06:05:17.560Z,4.47
2019-04-23T06:07:47.754Z,4.85
2019-04-23T06:10:18.113Z,4.75
2019-04-23T06:12:56.065Z,4.50
2019-04-23T06:15:29.102Z,4.45
2019-04-23T06:18:02.246Z,4.87
2019-04-23T06:20:34.971Z,4.67
2019-04-23T06:23:05.753Z,4.50
2019-04-23T06:28:03.527Z,4.55
2019-04-23T06:30:42.204Z,4.70
2019-04-23T06:33:08.926Z,4.70
2019-04-23T06:35:41.293Z,4.75
2019-04-23T06:38:39.181Z,4.80
2019-04-23T06:40:43.535Z,4.60
2019-04-23T06:43:22.717Z,4.92
2019-04-23T06:45:49.355Z,5.05
2019-04-23T06:48:30.265Z,5.17
2019-04-23T06:50:59.371Z,4.72
2019-04-23T06:53:24.213Z,5.12
2019-04-23T06:58:34.198Z,5.12
2019-04-23T07:01:03.420Z,4.80
2019-04-23T07:03:41.028Z,4.95
2019-04-23T07:06:17.275Z,5.20
2019-04-23T07:09:03.088Z,5.20
2019-04-23T07:11:16.690Z,5.03
2019-04-23T07:13:47.318Z,4.95
2019-04-23T07:16:09.500Z,5.30
2019-04-23T07:18:41.553Z,5.47
2019-04-23T07:21:18.707Z,5.28
2019-04-23T07:23:54.662Z,5.35
2019-04-23T07:28:59.667Z,4.95
2019-04-23T07:31:28.397Z,4.90
2019-04-23T07:33:55.917Z,5.05
2019-04-23T07:42:03.604Z,5.47
2019-04-23T07:47:47.294Z,4.87
2019-04-23T07:50:23.415Z,5.25
2019-04-23T07:52:59.038Z,5.00
2019-04-23T07:55:28.417Z,5.00
2019-04-23T07:58:04.719Z,4.70
2019-04-23T08:03:08.702Z,4.70
2019-04-23T08:05:26.563Z,4.70
2019-04-23T08:13:14.159Z,5.05
2019-04-23T08:15:36.927Z,5.12
2019-04-23T08:18:06.868Z,4.65
2019-04-23T08:20:42.587Z,4.55
2019-04-23T08:23:28.329Z,4.60
2019-04-23T08:26:23.870Z,4.42
2019-04-23T08:28:58.514Z,4.87
2019-04-23T08:31:14.434Z,4.80
2019-04-23T08:33:54.921Z,4.47
2019-04-23T08:36:23.746Z,5.10
2019-04-23T08:39:02.084Z,4.62
2019-04-23T08:41:29.926Z,4.78
2019-04-23T08:44:03.495Z,4.70
2019-04-23T08:49:36.092Z,5.03
2019-04-23T08:54:47.992Z,5.20
2019-04-23T08:57:11.244Z,4.60
2019-04-23T08:59:57.361Z,4.55
2019-04-23T09:04:50.211Z,5.15
2019-04-23T09:07:16.800Z,5.45
2019-04-23T09:12:16.742Z,4.47
2019-04-23T09:17:16.855Z,4.92
2019-04-23T09:20:05.009Z,5.37
2019-04-23T09:22:28.237Z,5.05
2019-04-23T09:24:55.539Z,4.62
2019-04-23T09:27:31.706Z,4.42
2019-04-23T09:30:00.040Z,4.90
2019-04-23T09:32:29.883Z,4.75
2019-04-23T09:35:27.849Z,4.75
2019-04-23T09:38:32.551Z,4.58
2019-04-23T09:41:29.943Z,5.25
2019-04-23T09:44:50.759Z,4.62
2019-04-23T09:46:56.643Z,5.05
2019-04-23T09:49:29.110Z,4.92
2019-04-23T09:52:05.711Z,5.03
2019-04-23T09:54:23.990Z,5.15
2019-04-23T09:56:52.626Z,4.67
2019-04-23T09:59:32.358Z,4.97
2019-04-23T10:01:49.945Z,5.00
2019-04-23T10:04:19.414Z,4.78
2019-04-23T10:06:39.202Z,5.10
2019-04-23T10:09:10.577Z,5.15
2019-04-23T10:11:42.951Z,4.90
2019-04-23T10:14:14.481Z,4.80
2019-04-23T10:16:45.241Z,4.70
2019-04-23T10:19:15.156Z,5.20
2019-04-23T10:21:45.350Z,5.12
2019-04-23T10:24:15.234Z,4.87
2019-04-23T10:26:46.081Z,4.37
2019-04-23T10:29:21.080Z,5.00
2019-04-23T10:31:51.431Z,4.62
2019-04-23T10:34:23.171Z,5.47
2019-04-23T10:36:53.603Z,4.80
2019-04-23T10:39:29.859Z,4.87
2019-04-23T10:41:56.996Z,4.85
2019-04-23T10:44:52.166Z,5.10
2019-04-23T10:48:12.116Z,4.55
2019-04-23T10:53:30.042Z,4.78
2019-04-23T10:56:21.377Z,4.67
2019-04-23T11:01:05.126Z,4.62
2019-04-23T11:03:50.541Z,5.12
2019-04-23T11:08:36.932Z,4.28
2019-04-23T11:11:16.586Z,4.75
2019-04-23T11:13:50.351Z,4.47
2019-04-23T11:16:46.035Z,4.97
2019-04-23T11:21:28.585Z,4.53
2019-04-23T11:23:56.048Z,4.50
2019-04-23T11:26:32.733Z,4.50
2019-04-23T11:28:51.899Z,4.58
2019-04-23T11:31:36.916Z,4.92
2019-04-23T11:36:48.168Z,4.92
2019-04-23T11:38:02.677Z,5.87
2019-04-23T11:39:00.546Z,5.03
2019-04-23T11:41:51.814Z,4.65
2019-04-23T11:46:45.513Z,5.30
2019-04-23T11:50:45.240Z,5.10
2019-04-23T11:54:10.927Z,4.72
2019-04-23T11:57:07.908Z,4.80
2019-04-23T11:59:25.887Z,4.80
2019-04-23T12:02:07.328Z,5.33
2019-04-23T12:05:03.751Z,5.35
2019-04-23T12:07:57.704Z,5.17
2019-04-23T12:10:55.841Z,4.97
2019-04-23T12:13:11.914Z,5.22
2019-04-23T12:27:31.481Z,5.22
2019-04-23T12:30:08.916Z,4.92
2019-04-23T12:37:44.976Z,5.10
2019-04-23T12:45:26.846Z,5.00
2019-04-23T12:50:44.764Z,5.70
2019-04-23T13:00:30.803Z,5.20
2019-04-23T13:03:02.652Z,4.97
2019-04-23T13:05:31.781Z,5.70
2019-04-23T13:08:15.841Z,5.33
2019-04-23T13:10:49.577Z,5.65
2019-04-23T13:13:24.274Z,5.05
2019-04-23T13:15:40.827Z,4.85
2019-04-23T13:18:17.488Z,4.78
2019-04-23T13:20:43.608Z,5.00
2019-04-23T13:23:22.197Z,5.00
2019-04-23T13:25:57.458Z,5.08
2019-04-23T13:28:29.554Z,5.00
2019-04-23T13:31:02.368Z,5.40
2019-04-23T13:36:08.390Z,5.78
2019-04-23T13:38:38.415Z,5.05
2019-04-23T13:41:08.435Z,5.17
2019-04-23T13:43:41.024Z,4.85
2019-04-23T13:46:14.087Z,5.62
2019-04-23T13:48:30.051Z,5.20
2019-04-23T13:51:19.375Z,5.70
2019-04-23T13:56:15.291Z,5.78
2019-04-23T13:59:07.344Z,5.10
2019-04-23T14:04:04.736Z,5.50
2019-04-23T14:06:34.957Z,5.05
2019-04-23T14:11:30.944Z,5.17
2019-04-23T14:14:16.726Z,5.62
2019-04-23T14:21:34.547Z,5.20
2019-04-23T14:24:18.049Z,4.97
2019-04-23T14:26:41.761Z,5.47
2019-04-23T14:29:07.316Z,5.53
2019-04-23T14:31:35.947Z,5.90
2019-04-23T14:34:11.633Z,6.33
2019-04-23T14:36:42.837Z,5.37
2019-04-23T14:39:22.007Z,5.67
2019-04-23T14:41:44.294Z,5.50
2019-04-23T14:44:19.030Z,5.62
2019-04-23T14:47:07.456Z,5.35
2019-04-23T14:49:56.636Z,5.20
2019-04-23T14:52:14.549Z,5.30
2019-04-23T14:55:22.422Z,5.70
2019-04-23T14:57:30.424Z,5.33
2019-04-23T14:59:53.820Z,5.20
2019-04-23T15:02:28.689Z,4.80
2019-04-23T15:05:00.098Z,5.40
2019-04-23T15:07:28.613Z,4.92
2019-04-23T15:10:01.616Z,5.20
2019-04-23T15:12:30.113Z,5.53
2019-04-23T15:15:10.034Z,5.10
2019-04-23T15:17:36.189Z,5.50
2019-04-23T15:20:08.108Z,5.28
2019-04-23T15:22:53.401Z,5.00
2019-04-23T15:28:20.285Z,5.30
2019-04-23T15:30:04.182Z,4.95
2019-04-23T15:32:58.641Z,5.80
2019-04-23T15:40:22.901Z,5.17
2019-04-23T15:42:57.911Z,5.53
2019-04-23T15:45:20.985Z,5.85
2019-04-23T15:48:08.514Z,5.62
2019-04-23T15:50:28.403Z,5.60
2019-04-23T15:55:36.846Z,5.45
2019-04-23T16:02:40.158Z,5.40
2019-04-23T16:05:12.510Z,5.37
2019-04-23T16:08:02.227Z,5.05
2019-04-23T16:10:49.162Z,5.37
2019-04-23T16:13:18.414Z,5.25
2019-04-23T16:15:56.641Z,5.40
2019-04-23T16:18:37.372Z,5.50
2019-04-23T16:21:03.648Z,5.22
2019-04-23T16:23:26.444Z,5.50
2019-04-23T16:28:42.119Z,5.03
2019-04-23T16:31:12.988Z,5.60
2019-04-23T16:33:51.055Z,5.58
2019-04-23T16:36:19.720Z,5.00
2019-04-23T16:38:52.228Z,5.97
2019-04-23T16:43:57.697Z,4.72
2019-04-23T16:46:43.833Z,5.10
2019-04-23T16:54:01.744Z,5.17
2019-04-23T16:56:42.386Z,4.60
2019-04-23T16:59:10.292Z,5.08
2019-04-23T17:01:25.006Z,4.95
2019-04-23T17:04:13.558Z,5.33
2019-04-23T17:06:37.707Z,5.30
2019-04-23T17:09:09.996Z,5.42
2019-04-23T17:11:55.193Z,5.90
2019-04-23T17:14:13.402Z,4.87
2019-04-23T17:16:50.005Z,5.83
2019-04-23T17:19:17.821Z,5.80
2019-04-23T17:21:45.267Z,5.30
2019-04-23T17:26:44.812Z,5.12
2019-04-23T17:29:21.761Z,5.62
2019-04-23T17:31:52.985Z,5.62
2019-04-23T17:37:13.921Z,5.55
2019-04-23T17:40:15.734Z,5.60
2019-04-23T17:42:46.658Z,5.45
2019-04-23T17:45:30.814Z,5.70
2019-04-23T17:48:00.881Z,5.20
2019-04-23T17:50:43.815Z,5.50
2019-04-23T17:55:57.652Z,5.25
2019-04-23T17:58:25.485Z,5.40
2019-04-23T18:01:04.004Z,5.70
2019-04-23T18:03:25.612Z,5.83
2019-04-23T18:06:14.130Z,5.92
2019-04-23T18:08:27.270Z,5.97
2019-04-23T18:11:12.783Z,6.15
2019-04-23T18:13:35.091Z,5.30
2019-04-23T18:16:09.561Z,5.92
2019-04-23T18:18:38.242Z,5.58
2019-04-23T18:21:36.269Z,5.30
2019-04-23T18:24:23.311Z,5.60
2019-04-23T18:27:01.209Z,5.72
2019-04-23T18:29:51.030Z,5.35
2019-04-23T18:32:22.164Z,5.45
2019-04-23T18:37:30.061Z,4.85
2019-04-23T18:39:54.600Z,5.40
2019-04-23T18:44:56.201Z,5.17
2019-04-23T18:47:40.281Z,5.50
2019-04-23T18:50:01.989Z,5.30
2019-04-23T18:52:41.194Z,5.35
2019-04-23T18:55:08.060Z,5.45
2019-04-23T18:57:38.334Z,5.53
2019-04-23T19:00:09.030Z,5.45
2019-04-23T19:03:19.794Z,6.15
2019-04-23T19:05:45.699Z,6.22
2019-04-23T19:08:55.265Z,5.40
2019-04-23T19:11:13.656Z,5.33
2019-04-23T19:13:42.302Z,5.72
2019-04-23T19:16:09.650Z,5.30
2019-04-23T19:18:43.093Z,5.85
2019-04-23T19:21:13.778Z,5.12
2019-04-23T19:23:54.677Z,6.15
2019-04-23T19:26:24.585Z,5.67
2019-04-23T19:31:46.251Z,5.72
2019-04-23T19:39:21.445Z,6.15
2019-04-23T19:44:15.978Z,6.10
2019-04-23T19:46:58.250Z,6.03
2019-04-23T19:49:31.628Z,6.17
2019-04-23T19:51:53.418Z,6.50
2019-04-23T19:54:40.250Z,5.90
2019-04-23T19:59:35.929Z,6.17
2019-04-23T20:02:00.526Z,6.80
2019-04-23T20:04:32.176Z,6.12
2019-04-23T20:07:12.276Z,6.62
2019-04-23T20:12:00.973Z,6.80
2019-04-23T20:14:41.543Z,6.40
2019-04-23T20:17:23.138Z,6.50
2019-04-23T20:19:44.064Z,7.03
2019-04-23T20:27:23.546Z,6.80
2019-04-23T20:30:21.146Z,6.75
2019-04-23T20:35:11.278Z,6.80
2019-04-23T20:38:19.025Z,6.40
2019-04-23T20:40:25.875Z,6.28
2019-04-23T20:45:20.123Z,6.97
2019-04-23T20:47:52.893Z,7.03
2019-04-23T20:50:26.896Z,7.28
2019-04-23T20:52:52.931Z,6.95
2019-04-23T20:55:44.259Z,7.67
2019-04-23T20:58:14.171Z,7.08
2019-04-23T21:01:05.018Z,6.58
2019-04-23T21:03:37.666Z,7.35
2019-04-23T21:06:07.133Z,6.95
2019-04-23T21:08:52.433Z,7.00
2019-04-23T21:11:01.403Z,6.87
2019-04-23T21:16:05.025Z,6.95
2019-04-23T21:23:51.029Z,7.40
2019-04-23T21:26:08.177Z,7.25
2019-04-23T21:28:48.256Z,7.37
2019-04-23T21:31:21.034Z,7.53
2019-04-23T21:34:06.137Z,7.00
2019-04-23T21:36:58.472Z,7.85
2019-04-23T21:40:12.461Z,8.33
2019-04-23T21:42:35.662Z,7.47
2019-04-23T21:44:59.245Z,7.50
2019-04-23T21:47:38.612Z,7.87
2019-04-23T21:50:08.385Z,7.00
2019-04-23T21:52:36.453Z,7.85
2019-04-23T21:55:07.443Z,6.85
2019-04-23T21:57:45.574Z,7.40
2019-04-23T22:00:08.578Z,6.87
2019-04-23T22:02:47.147Z,7.17
2019-04-23T22:05:15.929Z,7.17
2019-04-23T22:07:51.547Z,7.70
2019-04-23T22:10:34.218Z,7.22
2019-04-23T22:13:09.298Z,7.17
2019-04-23T22:15:22.187Z,7.65
2019-04-23T22:17:49.672Z,7.10
2019-04-23T22:25:32.930Z,6.60
2019-04-23T22:28:14.487Z,6.97
2019-04-23T22:30:31.474Z,6.65
2019-04-23T22:33:03.088Z,7.00
2019-04-23T22:35:52.141Z,7.12
2019-04-23T22:38:15.817Z,7.10
2019-04-23T22:40:34.535Z,7.00
2019-04-23T22:43:14.957Z,6.35
2019-04-23T22:45:46.769Z,6.75
2019-04-23T22:48:06.910Z,6.55
2019-04-23T22:50:58.960Z,6.45
2019-04-23T22:55:57.244Z,6.87
2019-04-23T22:58:09.759Z,6.75
2019-04-23T23:01:12.697Z,6.85
2019-04-23T23:03:33.366Z,6.58
2019-04-23T23:08:52.319Z,6.70
2019-04-23T23:13:53.379Z,7.25
2019-04-23T23:16:14.492Z,7.30
2019-04-23T23:18:42.620Z,7.20
2019-04-23T23:21:22.259Z,6.75
2019-04-23T23:23:47.782Z,6.62
2019-04-23T23:28:48.275Z,7.42
2019-04-23T23:33:59.011Z,7.60
2019-04-23T23:36:28.501Z,6.50
2019-04-23T23:44:24.072Z,7.45
2019-04-23T23:46:37.427Z,7.37
2019-04-23T23:49:03.168Z,7.03
2019-04-23T23:54:11.352Z,8.08
2019-04-23T23:56:45.535Z,7.53
2019-04-23T23:59:12.854Z,7.67
